MOL Maxim — V7TU3 — position and weather

sailwx.info

Track history (hours):
 
Tides and Currents Weather Stations Pressure Air Temp Water Temp Dewpoint Dewpoint Depression Visibility Wind Speed Wind Dir Waves Ship Positions

MOL Maxim

Last reported at 2017-Nov-15 12:09 UTC. Time now 2017-Nov-21 06:22 UTC.
Position N 36°52' W 075°51'.

Length 302 m; draft 13 m.

Type: Ship (hazmat cat A). MMSI: 538003886.

Date/timePositionNaut miles runAvg speedWind from/ knotsBaromVisibWave heightAir tempDewpointWater temp
2017-Nov-15 12:09N 36°52' W 075°51'1 9.7
2017-Nov-15 12:00N 36°52' W 075°52'5 9.4
2017-Nov-15 11:30N 36°56' W 075°56'5 9.2
2017-Nov-15 11:00N 36°57' W 076°02'610.4
2017-Nov-15 10:23N 36°59' W 076°09'9 8.8
2017-Nov-15 09:23N 36°58' W 076°20'3 7.1
2017-Nov-15 09:00N 36°55' W 076°20'1 1.4
2017-Nov-15 08:28N 36°55' W 076°20'0 0.0
2017-Nov-15 07:58N 36°55' W 076°20'0 0.0
2017-Nov-15 07:28N 36°55' W 076°20'0 0.0
2017-Nov-15 06:58N 36°55' W 076°20'0 0.0
2017-Nov-15 06:28N 36°55' W 076°20'0 0.0
2017-Nov-15 05:58N 36°55' W 076°20'0 0.0
2017-Nov-15 05:28N 36°55' W 076°20'0 0.0
2017-Nov-15 04:58N 36°55' W 076°20'0 0.0
2017-Nov-15 04:28N 36°55' W 076°20'0 0.0
2017-Nov-15 03:58N 36°55' W 076°20'0 0.0
2017-Nov-15 03:28N 36°55' W 076°20'0 0.0
2017-Nov-15 02:58N 36°55' W 076°20'0 0.0
2017-Nov-15 02:28N 36°55' W 076°20'0 0.0
2017-Nov-15 01:58N 36°55' W 076°20'0 0.0
2017-Nov-15 01:28N 36°55' W 076°20'0 0.0
2017-Nov-15 00:58N 36°55' W 076°20'0 0.0
2017-Nov-15 00:28N 36°55' W 076°20'0 0.0
2017-Nov-14 23:58N 36°55' W 076°20'0 0.0
2017-Nov-14 23:25N 36°55' W 076°20'0 0.0
2017-Nov-14 22:58N 36°55' W 076°20'0 0.0
2017-Nov-14 22:28N 36°55' W 076°20'0 0.0
2017-Nov-14 21:58N 36°55' W 076°20'0 0.0
2017-Nov-14 21:28N 36°55' W 076°20'0 0.0
2017-Nov-14 20:58N 36°55' W 076°20'0 0.0
2017-Nov-14 20:28N 36°55' W 076°20'0 0.0
2017-Nov-14 19:58N 36°55' W 076°20'0 0.0
2017-Nov-14 19:28N 36°55' W 076°20'0 0.0
2017-Nov-14 18:52N 36°55' W 076°20'0 0.0
2017-Nov-14 18:25N 36°55' W 076°20'0 0.0
2017-Nov-14 17:58N 36°55' W 076°20'0 0.0
2017-Nov-14 17:28N 36°55' W 076°20'0 0.0
2017-Nov-14 16:58N 36°55' W 076°20'0 0.0
2017-Nov-14 16:16N 36°55' W 076°20'0 0.0
2017-Nov-14 15:55N 36°55' W 076°20'0 0.0
2017-Nov-14 15:25N 36°55' W 076°20'0 0.0
2017-Nov-14 14:49N 36°55' W 076°20'0 0.0
2017-Nov-14 14:28N 36°55' W 076°20'0 0.0
2017-Nov-14 13:58N 36°55' W 076°20'0 0.0
2017-Nov-14 13:28N 36°55' W 076°20'0 0.0
2017-Nov-14 12:58N 36°55' W 076°20'0 0.0
2017-Nov-14 12:28N 36°55' W 076°20'0 0.0
2017-Nov-14 11:58N 36°55' W 076°20'0 0.0
2017-Nov-14 11:28N 36°55' W 076°20'0 0.0
2017-Nov-14 10:58N 36°55' W 076°20'0 0.0
2017-Nov-14 10:28N 36°55' W 076°20'0 0.0
2017-Nov-14 09:58N 36°55' W 076°20'0 0.0
2017-Nov-14 09:28N 36°55' W 076°20'0 0.0
2017-Nov-14 08:58N 36°55' W 076°20'0 0.0
2017-Nov-14 08:28N 36°55' W 076°20'0 0.0
2017-Nov-14 07:58N 36°55' W 076°20'0 0.0
2017-Nov-14 07:28N 36°55' W 076°20'0 0.0
2017-Nov-14 06:58N 36°55' W 076°20'0 0.0
2017-Nov-14 06:28N 36°55' W 076°20'0 0.0
2017-Nov-14 05:58N 36°55' W 076°20'0 0.0
2017-Nov-14 05:28N 36°55' W 076°20'0 0.0
2017-Nov-14 04:58N 36°55' W 076°20'0 0.0
2017-Nov-14 04:16N 36°55' W 076°20'0 0.0
2017-Nov-14 03:58N 36°55' W 076°20'0 0.0
2017-Nov-14 03:28N 36°55' W 076°20'0 0.0
2017-Nov-14 02:58N 36°55' W 076°20'0 0.0
2017-Nov-14 01:55N 36°55' W 076°20'0 0.0
2017-Nov-14 00:40N 36°55' W 076°20'0 0.0
2017-Nov-14 00:25N 36°55' W 076°20'0 0.0
2017-Nov-13 23:55N 36°55' W 076°20'0 0.0
2017-Nov-13 23:25N 36°55' W 076°20'0 0.0
2017-Nov-13 22:55N 36°55' W 076°20'0 0.0
2017-Nov-13 22:30N 36°55' W 076°20'1 1.4
2017-Nov-13 22:00N 36°55' W 076°20'304 6.7
2017-Nov-12 00:41N 32°44' W 079°49'210.5
2017-Nov-12 00:30N 32°43' W 079°48'23 8.0
2017-Nov-11 21:39N 32°23' W 079°35'510.0
2017-Nov-11 21:11N 32°20' W 079°39'  
2017-Nov-09 09:26N 31°55' W 080°35'4 9.8
2017-Nov-09 09:00N 31°57' W 080°40'5 9.3
2017-Nov-09 08:30N 31°59' W 080°45'713.7
2017-Nov-09 08:00N 32°02' W 080°52'611.8
2017-Nov-09 07:30N 32°04' W 080°58'4 8.1
2017-Nov-09 07:00N 32°05' W 081°03'3 6.0
2017-Nov-09 06:30N 32°06' W 081°06'3 5.2
2017-Nov-09 06:00N 32°08' W 081°08'0 0.0
2017-Nov-09 05:17N 32°08' W 081°08'0 0.0
2017-Nov-09 04:53N 32°08' W 081°08'0 0.0
2017-Nov-09 04:29N 32°08' W 081°08'0 0.0
2017-Nov-09 03:59N 32°08' W 081°08'0 0.0
2017-Nov-09 03:05N 32°08' W 081°08'0 0.1
2017-Nov-09 02:59N 32°08' W 081°08'0 0.0
2017-Nov-09 02:23N 32°08' W 081°08'0 0.0
2017-Nov-09 01:59N 32°08' W 081°08'0 0.0
2017-Nov-09 01:29N 32°08' W 081°08'0 0.0
2017-Nov-09 00:59N 32°08' W 081°08'0 0.0
2017-Nov-09 00:29N 32°08' W 081°08'0 0.0
2017-Nov-08 23:47N 32°08' W 081°08'0 0.0
2017-Nov-08 23:29N 32°08' W 081°08'0 0.0
2017-Nov-08 22:59N 32°08' W 081°08'0 0.0
2017-Nov-08 22:29N 32°08' W 081°08'0 0.0
2017-Nov-08 21:59N 32°08' W 081°08'0 0.0
2017-Nov-08 21:23N 32°08' W 081°08'0 0.0
2017-Nov-08 20:59N 32°08' W 081°08'0 0.0
2017-Nov-08 20:29N 32°08' W 081°08'0 0.0
2017-Nov-08 19:53N 32°08' W 081°08'0 0.0
2017-Nov-08 19:29N 32°08' W 081°08'0 0.0
2017-Nov-08 18:59N 32°08' W 081°08'0 0.0
2017-Nov-08 18:29N 32°08' W 081°08'0 0.0
2017-Nov-08 17:59N 32°08' W 081°08'0 0.0
2017-Nov-08 17:29N 32°08' W 081°08'0 0.0
2017-Nov-08 16:59N 32°08' W 081°08'0 0.0
2017-Nov-08 16:29N 32°08' W 081°08'0 0.0
2017-Nov-08 15:53N 32°08' W 081°08'0 0.0
2017-Nov-08 15:29N 32°08' W 081°08'0 0.0
2017-Nov-08 14:53N 32°08' W 081°08'0 0.0
2017-Nov-08 14:29N 32°08' W 081°08'0 0.0
2017-Nov-08 13:53N 32°08' W 081°08'0 0.0
2017-Nov-08 13:29N 32°08' W 081°08'0 0.0
2017-Nov-08 12:53N 32°08' W 081°08'0 0.0
2017-Nov-08 12:23N 32°08' W 081°08'0 0.0
2017-Nov-08 11:59N 32°08' W 081°08'0 0.0
2017-Nov-08 11:29N 32°08' W 081°08'0 0.0
2017-Nov-08 10:59N 32°08' W 081°08'0 0.0
2017-Nov-08 10:29N 32°08' W 081°08'0 0.0
2017-Nov-08 09:59N 32°08' W 081°08'0 0.0
2017-Nov-08 09:23N 32°08' W 081°08'0 0.0
2017-Nov-08 08:59N 32°08' W 081°08'0 0.0
2017-Nov-08 08:23N 32°08' W 081°08'0 0.0
2017-Nov-08 07:47N 32°08' W 081°08'0 0.0
2017-Nov-08 07:29N 32°08' W 081°08'0 0.0
2017-Nov-08 06:59N 32°08' W 081°08'0 0.0
2017-Nov-08 06:29N 32°08' W 081°08'0 0.0
2017-Nov-08 05:59N 32°08' W 081°08'0 0.0
2017-Nov-08 05:29N 32°08' W 081°08'0 0.0
2017-Nov-08 04:59N 32°08' W 081°08'0 0.0
2017-Nov-08 04:29N 32°08' W 081°08'0 0.0
2017-Nov-08 03:29N 32°08' W 081°08'0 0.0
2017-Nov-08 02:59N 32°08' W 081°08'0 0.5
2017-Nov-08 02:30N 32°08' W 081°08'2 4.0
2017-Nov-08 02:00N 32°06' W 081°07'2 4.9
2017-Nov-08 01:30N 32°05' W 081°05'3 6.0
2017-Nov-08 01:00N 32°06' W 081°01'5 9.6
2017-Nov-08 00:30N 32°03' W 080°56'611.7
2017-Nov-08 00:00N 32°02' W 080°49'713.7
2017-Nov-07 23:31N 31°58' W 080°43'5 9.5
2017-Nov-07 23:00N 31°56' W 080°38'4 8.4
2017-Nov-07 22:30N 31°55' W 080°33'3 6.7
2017-Nov-07 22:00N 31°55' W 080°29'0 0.4
2017-Nov-07 21:28N 31°55' W 080°29'0 0.2
2017-Nov-07 20:52N 31°55' W 080°29'0 0.0
2017-Nov-07 20:28N 31°55' W 080°29'0 0.0
2017-Nov-07 19:58N 31°55' W 080°29'0 0.0
2017-Nov-07 19:28N 31°55' W 080°29'0 0.0
2017-Nov-07 18:58N 31°55' W 080°29'0 0.0
2017-Nov-07 18:22N 31°55' W 080°29'0 0.0
2017-Nov-07 17:52N 31°55' W 080°29'0 0.0
2017-Nov-07 17:22N 31°55' W 080°29'0 0.1
2017-Nov-07 16:58N 31°55' W 080°29'0 0.1
2017-Nov-07 16:22N 31°55' W 080°29'0 0.1
2017-Nov-07 14:16N 31°55' W 080°29'0 0.0
2017-Nov-07 13:16N 31°55' W 080°29'0 0.0
2017-Nov-07 12:40N 31°55' W 080°29'0 0.0
2017-Nov-07 12:28N 31°55' W 080°29'0 0.0
2017-Nov-07 11:52N 31°55' W 080°29'0 0.0
2017-Nov-07 09:58N 31°55' W 080°29'0 0.2
2017-Nov-07 09:28N 31°55' W 080°29'0 0.3
2017-Nov-07 08:46N 31°55' W 080°29'0 0.1
2017-Nov-07 08:28N 31°55' W 080°29'0 0.0
2017-Nov-07 07:46N 31°55' W 080°29'0 0.0
2017-Nov-07 07:28N 31°55' W 080°29'0 0.0
2017-Nov-07 06:52N 31°55' W 080°29'0 0.0
2017-Nov-07 06:28N 31°55' W 080°29'0 0.0
2017-Nov-07 05:58N 31°55' W 080°29'0 0.0
2017-Nov-07 05:22N 31°55' W 080°29'0 0.0
2017-Nov-07 04:52N 31°55' W 080°29'0 0.0
2017-Nov-07 04:28N 31°55' W 080°29'0 0.0
2017-Nov-07 03:58N 31°55' W 080°29'0 0.1
2017-Nov-07 03:28N 31°55' W 080°29'0 0.1
2017-Nov-07 02:58N 31°55' W 080°29'0 0.0
2017-Nov-06 22:34N 31°55' W 080°29'0 0.1
2017-Nov-06 22:28N 31°55' W 080°29'0 0.0
2017-Nov-06 21:40N 31°55' W 080°29'0 0.1
2017-Nov-06 21:22N 31°55' W 080°29'0 0.1
2017-Nov-06 20:58N 31°55' W 080°29'0 0.2
2017-Nov-06 20:28N 31°55' W 080°29'  
Track history (hours):
 
Tides and Currents Weather Stations Pressure Air Temp Water Temp Dewpoint Dewpoint Depression Visibility Wind Speed Wind Dir Waves Ship Positions

MOL Maxim

Last reported at 2017-Nov-15 12:09 UTC. Time now 2017-Nov-21 06:22 UTC.
Position N 36°52' W 075°51'.

Length 302 m; draft 13 m.

Type: Ship (hazmat cat A). MMSI: 538003886.

Date/timePositionNaut miles runAvg speedWind from/ knotsBaromVisibWave heightAir tempDewpointWater temp
2017-Nov-15 12:09N 36°52' W 075°51'1 9.7
2017-Nov-15 12:00N 36°52' W 075°52'5 9.4
2017-Nov-15 11:30N 36°56' W 075°56'5 9.2
2017-Nov-15 11:00N 36°57' W 076°02'610.4
2017-Nov-15 10:23N 36°59' W 076°09'9 8.8
2017-Nov-15 09:23N 36°58' W 076°20'3 7.1
2017-Nov-15 09:00N 36°55' W 076°20'1 1.4
2017-Nov-15 08:28N 36°55' W 076°20'0 0.0
2017-Nov-15 07:58N 36°55' W 076°20'0 0.0
2017-Nov-15 07:28N 36°55' W 076°20'0 0.0
2017-Nov-15 06:58N 36°55' W 076°20'0 0.0
2017-Nov-15 06:28N 36°55' W 076°20'0 0.0
2017-Nov-15 05:58N 36°55' W 076°20'0 0.0
2017-Nov-15 05:28N 36°55' W 076°20'0 0.0
2017-Nov-15 04:58N 36°55' W 076°20'0 0.0
2017-Nov-15 04:28N 36°55' W 076°20'0 0.0
2017-Nov-15 03:58N 36°55' W 076°20'0 0.0
2017-Nov-15 03:28N 36°55' W 076°20'0 0.0
2017-Nov-15 02:58N 36°55' W 076°20'0 0.0
2017-Nov-15 02:28N 36°55' W 076°20'0 0.0
2017-Nov-15 01:58N 36°55' W 076°20'0 0.0
2017-Nov-15 01:28N 36°55' W 076°20'0 0.0
2017-Nov-15 00:58N 36°55' W 076°20'0 0.0
2017-Nov-15 00:28N 36°55' W 076°20'0 0.0
2017-Nov-14 23:58N 36°55' W 076°20'0 0.0
2017-Nov-14 23:25N 36°55' W 076°20'0 0.0
2017-Nov-14 22:58N 36°55' W 076°20'0 0.0
2017-Nov-14 22:28N 36°55' W 076°20'0 0.0
2017-Nov-14 21:58N 36°55' W 076°20'0 0.0
2017-Nov-14 21:28N 36°55' W 076°20'0 0.0
2017-Nov-14 20:58N 36°55' W 076°20'0 0.0
2017-Nov-14 20:28N 36°55' W 076°20'0 0.0
2017-Nov-14 19:58N 36°55' W 076°20'0 0.0
2017-Nov-14 19:28N 36°55' W 076°20'0 0.0
2017-Nov-14 18:52N 36°55' W 076°20'0 0.0
2017-Nov-14 18:25N 36°55' W 076°20'0 0.0
2017-Nov-14 17:58N 36°55' W 076°20'0 0.0
2017-Nov-14 17:28N 36°55' W 076°20'0 0.0
2017-Nov-14 16:58N 36°55' W 076°20'0 0.0
2017-Nov-14 16:16N 36°55' W 076°20'0 0.0
2017-Nov-14 15:55N 36°55' W 076°20'0 0.0
2017-Nov-14 15:25N 36°55' W 076°20'0 0.0
2017-Nov-14 14:49N 36°55' W 076°20'0 0.0
2017-Nov-14 14:28N 36°55' W 076°20'0 0.0
2017-Nov-14 13:58N 36°55' W 076°20'0 0.0
2017-Nov-14 13:28N 36°55' W 076°20'0 0.0
2017-Nov-14 12:58N 36°55' W 076°20'0 0.0
2017-Nov-14 12:28N 36°55' W 076°20'0 0.0
2017-Nov-14 11:58N 36°55' W 076°20'0 0.0
2017-Nov-14 11:28N 36°55' W 076°20'0 0.0
2017-Nov-14 10:58N 36°55' W 076°20'0 0.0
2017-Nov-14 10:28N 36°55' W 076°20'0 0.0
2017-Nov-14 09:58N 36°55' W 076°20'0 0.0
2017-Nov-14 09:28N 36°55' W 076°20'0 0.0
2017-Nov-14 08:58N 36°55' W 076°20'0 0.0
2017-Nov-14 08:28N 36°55' W 076°20'0 0.0
2017-Nov-14 07:58N 36°55' W 076°20'0 0.0
2017-Nov-14 07:28N 36°55' W 076°20'0 0.0
2017-Nov-14 06:58N 36°55' W 076°20'0 0.0
2017-Nov-14 06:28N 36°55' W 076°20'0 0.0
2017-Nov-14 05:58N 36°55' W 076°20'0 0.0
2017-Nov-14 05:28N 36°55' W 076°20'0 0.0
2017-Nov-14 04:58N 36°55' W 076°20'0 0.0
2017-Nov-14 04:16N 36°55' W 076°20'0 0.0
2017-Nov-14 03:58N 36°55' W 076°20'0 0.0
2017-Nov-14 03:28N 36°55' W 076°20'0 0.0
2017-Nov-14 02:58N 36°55' W 076°20'0 0.0
2017-Nov-14 01:55N 36°55' W 076°20'0 0.0
2017-Nov-14 00:40N 36°55' W 076°20'0 0.0
2017-Nov-14 00:25N 36°55' W 076°20'0 0.0
2017-Nov-13 23:55N 36°55' W 076°20'0 0.0
2017-Nov-13 23:25N 36°55' W 076°20'0 0.0
2017-Nov-13 22:55N 36°55' W 076°20'0 0.0
2017-Nov-13 22:30N 36°55' W 076°20'1 1.4
2017-Nov-13 22:00N 36°55' W 076°20'304 6.7
2017-Nov-12 00:41N 32°44' W 079°49'210.5
2017-Nov-12 00:30N 32°43' W 079°48'23 8.0
2017-Nov-11 21:39N 32°23' W 079°35'510.0
2017-Nov-11 21:11N 32°20' W 079°39'  
2017-Nov-09 09:26N 31°55' W 080°35'4 9.8
2017-Nov-09 09:00N 31°57' W 080°40'5 9.3
2017-Nov-09 08:30N 31°59' W 080°45'713.7
2017-Nov-09 08:00N 32°02' W 080°52'611.8
2017-Nov-09 07:30N 32°04' W 080°58'4 8.1
2017-Nov-09 07:00N 32°05' W 081°03'3 6.0
2017-Nov-09 06:30N 32°06' W 081°06'3 5.2
2017-Nov-09 06:00N 32°08' W 081°08'0 0.0
2017-Nov-09 05:17N 32°08' W 081°08'0 0.0
2017-Nov-09 04:53N 32°08' W 081°08'0 0.0
2017-Nov-09 04:29N 32°08' W 081°08'0 0.0
2017-Nov-09 03:59N 32°08' W 081°08'0 0.0
2017-Nov-09 03:05N 32°08' W 081°08'0 0.1
2017-Nov-09 02:59N 32°08' W 081°08'0 0.0
2017-Nov-09 02:23N 32°08' W 081°08'0 0.0
2017-Nov-09 01:59N 32°08' W 081°08'0 0.0
2017-Nov-09 01:29N 32°08' W 081°08'0 0.0
2017-Nov-09 00:59N 32°08' W 081°08'0 0.0
2017-Nov-09 00:29N 32°08' W 081°08'0 0.0
2017-Nov-08 23:47N 32°08' W 081°08'0 0.0
2017-Nov-08 23:29N 32°08' W 081°08'0 0.0
2017-Nov-08 22:59N 32°08' W 081°08'0 0.0
2017-Nov-08 22:29N 32°08' W 081°08'0 0.0
2017-Nov-08 21:59N 32°08' W 081°08'0 0.0
2017-Nov-08 21:23N 32°08' W 081°08'0 0.0
2017-Nov-08 20:59N 32°08' W 081°08'0 0.0
2017-Nov-08 20:29N 32°08' W 081°08'0 0.0
2017-Nov-08 19:53N 32°08' W 081°08'0 0.0
2017-Nov-08 19:29N 32°08' W 081°08'0 0.0
2017-Nov-08 18:59N 32°08' W 081°08'0 0.0
2017-Nov-08 18:29N 32°08' W 081°08'0 0.0
2017-Nov-08 17:59N 32°08' W 081°08'0 0.0
2017-Nov-08 17:29N 32°08' W 081°08'0 0.0
2017-Nov-08 16:59N 32°08' W 081°08'0 0.0
2017-Nov-08 16:29N 32°08' W 081°08'0 0.0
2017-Nov-08 15:53N 32°08' W 081°08'0 0.0
2017-Nov-08 15:29N 32°08' W 081°08'0 0.0
2017-Nov-08 14:53N 32°08' W 081°08'0 0.0
2017-Nov-08 14:29N 32°08' W 081°08'0 0.0
2017-Nov-08 13:53N 32°08' W 081°08'0 0.0
2017-Nov-08 13:29N 32°08' W 081°08'0 0.0
2017-Nov-08 12:53N 32°08' W 081°08'0 0.0
2017-Nov-08 12:23N 32°08' W 081°08'0 0.0
2017-Nov-08 11:59N 32°08' W 081°08'0 0.0
2017-Nov-08 11:29N 32°08' W 081°08'0 0.0
2017-Nov-08 10:59N 32°08' W 081°08'0 0.0
2017-Nov-08 10:29N 32°08' W 081°08'0 0.0
2017-Nov-08 09:59N 32°08' W 081°08'0 0.0
2017-Nov-08 09:23N 32°08' W 081°08'0 0.0
2017-Nov-08 08:59N 32°08' W 081°08'0 0.0
2017-Nov-08 08:23N 32°08' W 081°08'0 0.0
2017-Nov-08 07:47N 32°08' W 081°08'0 0.0
2017-Nov-08 07:29N 32°08' W 081°08'0 0.0
2017-Nov-08 06:59N 32°08' W 081°08'0 0.0
2017-Nov-08 06:29N 32°08' W 081°08'0 0.0
2017-Nov-08 05:59N 32°08' W 081°08'0 0.0
2017-Nov-08 05:29N 32°08' W 081°08'0 0.0
2017-Nov-08 04:59N 32°08' W 081°08'0 0.0
2017-Nov-08 04:29N 32°08' W 081°08'0 0.0
2017-Nov-08 03:29N 32°08' W 081°08'0 0.0
2017-Nov-08 02:59N 32°08' W 081°08'0 0.5
2017-Nov-08 02:30N 32°08' W 081°08'2 4.0
2017-Nov-08 02:00N 32°06' W 081°07'2 4.9
2017-Nov-08 01:30N 32°05' W 081°05'3 6.0
2017-Nov-08 01:00N 32°06' W 081°01'5 9.6
2017-Nov-08 00:30N 32°03' W 080°56'611.7
2017-Nov-08 00:00N 32°02' W 080°49'713.7
2017-Nov-07 23:31N 31°58' W 080°43'5 9.5
2017-Nov-07 23:00N 31°56' W 080°38'4 8.4
2017-Nov-07 22:30N 31°55' W 080°33'3 6.7
2017-Nov-07 22:00N 31°55' W 080°29'0 0.4
2017-Nov-07 21:28N 31°55' W 080°29'0 0.2
2017-Nov-07 20:52N 31°55' W 080°29'0 0.0
2017-Nov-07 20:28N 31°55' W 080°29'0 0.0
2017-Nov-07 19:58N 31°55' W 080°29'0 0.0
2017-Nov-07 19:28N 31°55' W 080°29'0 0.0
2017-Nov-07 18:58N 31°55' W 080°29'0 0.0
2017-Nov-07 18:22N 31°55' W 080°29'0 0.0
2017-Nov-07 17:52N 31°55' W 080°29'0 0.0
2017-Nov-07 17:22N 31°55' W 080°29'0 0.1
2017-Nov-07 16:58N 31°55' W 080°29'0 0.1
2017-Nov-07 16:22N 31°55' W 080°29'0 0.1
2017-Nov-07 14:16N 31°55' W 080°29'0 0.0
2017-Nov-07 13:16N 31°55' W 080°29'0 0.0
2017-Nov-07 12:40N 31°55' W 080°29'0 0.0
2017-Nov-07 12:28N 31°55' W 080°29'0 0.0
2017-Nov-07 11:52N 31°55' W 080°29'0 0.0
2017-Nov-07 09:58N 31°55' W 080°29'0 0.2
2017-Nov-07 09:28N 31°55' W 080°29'0 0.3
2017-Nov-07 08:46N 31°55' W 080°29'0 0.1
2017-Nov-07 08:28N 31°55' W 080°29'0 0.0
2017-Nov-07 07:46N 31°55' W 080°29'0 0.0
2017-Nov-07 07:28N 31°55' W 080°29'0 0.0
2017-Nov-07 06:52N 31°55' W 080°29'0 0.0
2017-Nov-07 06:28N 31°55' W 080°29'0 0.0
2017-Nov-07 05:58N 31°55' W 080°29'0 0.0
2017-Nov-07 05:22N 31°55' W 080°29'0 0.0
2017-Nov-07 04:52N 31°55' W 080°29'0 0.0
2017-Nov-07 04:28N 31°55' W 080°29'0 0.0
2017-Nov-07 03:58N 31°55' W 080°29'0 0.1
2017-Nov-07 03:28N 31°55' W 080°29'0 0.1
2017-Nov-07 02:58N 31°55' W 080°29'0 0.0
2017-Nov-06 22:34N 31°55' W 080°29'0 0.1
2017-Nov-06 22:28N 31°55' W 080°29'0 0.0
2017-Nov-06 21:40N 31°55' W 080°29'0 0.1
2017-Nov-06 21:22N 31°55' W 080°29'0 0.1
2017-Nov-06 20:58N 31°55' W 080°29'0 0.2
2017-Nov-06 20:28N 31°55' W 080°29'  

Dump ship's entire track history